Time;durP1;ratioP1;P1;durP2;ratioP2;P2;SDS_P1;SDS_P2;PMS_P1;PMS_P2;Temp;Humidity;BMP_temperature;BMP_pressure;BME280_temperature;BME280_humidity;BME280_pressure;Samples;Min_cycle;Max_cycle;Signal;HPM_P1;HPM_P2
2022/04/12 00:00:41;;;;;;;7.95;1.30;;;;;;;13.10;41.92;98422.69;5093316;28;20042;-50
2022/04/12 00:03:07;;;;;;;4.85;2.65;;;;;;;13.11;41.82;98417.19;5094702;28;20149;-50
2022/04/12 00:05:34;;;;;;;39.00;32.35;;;;;;;13.05;41.71;98410.19;5093235;28;20447;-50
2022/04/12 00:08:00;;;;;;;11.10;3.08;;;;;;;12.98;42.17;98402.38;5094592;28;20460;-49
2022/04/12 00:10:28;;;;;;;5.43;1.98;;;;;;;12.98;41.79;98405.00;5093207;28;20494;-50
2022/04/12 00:12:54;;;;;;;6.47;1.90;;;;;;;13.04;41.17;98407.75;5093148;28;20031;-50
2022/04/12 00:15:20;;;;;;;5.65;1.60;;;;;;;13.04;40.78;98400.69;5093131;28;20078;-50
2022/04/12 00:20:30;;;;;;;5.30;1.48;;;;;;;13.01;40.71;98389.78;5094327;28;20038;-51
2022/04/12 00:22:57;;;;;;;5.40;1.45;;;;;;;13.11;40.99;98393.47;5094330;28;20533;-50
2022/04/12 00:25:23;;;;;;;6.10;1.30;;;;;;;13.15;40.01;98399.13;5092974;28;20494;-50
2022/04/12 00:27:51;;;;;;;5.13;1.48;;;;;;;13.12;40.07;98389.00;5092863;28;20024;-50
2022/04/12 00:30:21;;;;;;;6.30;2.88;;;;;;;13.14;40.11;98392.25;5094198;28;20024;-50
2022/04/12 00:32:50;;;;;;;14.73;2.55;;;;;;;13.18;39.93;98380.22;5093913;28;20036;-50
2022/04/12 00:35:17;;;;;;;4.15;1.08;;;;;;;13.31;39.06;98372.16;5094115;28;20032;-50
2022/04/12 00:37:43;;;;;;;7.07;1.98;;;;;;;13.29;39.21;98389.19;5094048;28;20054;-51
2022/04/12 00:40:09;;;;;;;3.05;1.10;;;;;;;13.27;38.35;98384.13;5092119;28;20051;-50
2022/04/12 00:42:35;;;;;;;5.68;1.13;;;;;;;13.23;38.16;98380.34;5093970;28;20497;-50
2022/04/12 00:45:01;;;;;;;5.60;1.88;;;;;;;13.18;38.67;98377.59;5092641;28;20028;-51
2022/04/12 00:47:27;;;;;;;5.10;1.40;;;;;;;13.22;38.04;98384.03;5093920;28;20020;-50
2022/04/12 00:49:52;;;;;;;12.25;3.38;;;;;;;13.28;38.85;98369.13;5092488;28;20035;-50
2022/04/12 00:52:19;;;;;;;10.23;2.50;;;;;;;13.37;38.70;98373.09;5093782;28;20028;-50
2022/04/12 00:54:45;;;;;;;10.20;3.40;;;;;;;13.45;37.97;98366.69;5092460;28;20116;-50
2022/04/12 00:57:12;;;;;;;5.00;1.20;;;;;;;13.54;37.14;98357.41;5092402;28;20024;-50
2022/04/12 00:59:38;;;;;;;7.00;1.27;;;;;;;13.57;36.89;98364.88;5093513;28;20036;-51
2022/04/12 01:02:07;;;;;;;10.30;2.85;;;;;;;13.65;36.13;98358.47;5092300;28;20027;-50
2022/04/12 01:04:33;;;;;;;6.47;2.08;;;;;;;13.70;35.94;98364.66;5093482;28;20028;-49
2022/04/12 01:07:03;;;;;;;8.30;1.60;;;;;;;13.76;35.47;98355.00;5092133;28;20459;-50
2022/04/12 01:09:29;;;;;;;16.15;4.43;;;;;;;13.70;35.91;98356.75;5093464;28;20039;-50
2022/04/12 01:11:57;;;;;;;10.88;2.45;;;;;;;13.65;34.94;98348.72;5092036;28;20024;-51
2022/04/12 01:14:24;;;;;;;9.75;3.17;;;;;;;13.70;35.74;98363.84;5093366;28;20028;-51
2022/04/12 01:16:51;;;;;;;6.35;2.05;;;;;;;13.76;35.00;98339.19;5091951;28;20393;-50
2022/04/12 01:19:17;;;;;;;12.32;4.07;;;;;;;13.63;33.84;98350.78;5091881;28;20024;-49
2022/04/12 01:21:53;;;;;;;12.13;2.75;;;;;;;13.60;34.27;98345.94;5091813;28;20031;-50
2022/04/12 01:24:19;;;;;;;7.63;2.08;;;;;;;13.63;33.50;98348.13;5093169;28;20382;-50
2022/04/12 01:26:46;;;;;;;11.70;3.08;;;;;;;13.62;34.04;98343.88;5093126;28;20066;-50
2022/04/12 01:29:12;;;;;;;6.07;1.42;;;;;;;13.65;33.39;98345.28;5093050;28;20035;-50
2022/04/12 01:31:38;;;;;;;5.65;0.98;;;;;;;13.55;33.02;98343.19;5092961;28;20394;-50
2022/04/12 01:34:03;;;;;;;5.65;1.40;;;;;;;13.50;32.55;98349.16;5092794;28;20043;-51
2022/04/12 01:36:29;;;;;;;3.47;1.02;;;;;;;13.47;32.12;98335.63;5091526;28;20413;-50
2022/04/12 01:38:55;;;;;;;2.10;0.82;;;;;;;13.42;31.39;98338.13;5091451;28;20118;-49
2022/04/12 01:41:21;;;;;;;6.47;1.50;;;;;;;13.36;31.46;98326.66;5091506;28;20408;-50
2022/04/12 01:43:46;;;;;;;6.82;1.73;;;;;;;13.41;31.68;98332.06;5091449;28;20028;-50
2022/04/12 01:46:12;;;;;;;2.92;0.95;;;;;;;13.47;31.44;98333.00;5092724;28;20056;-50
2022/04/12 01:48:38;;;;;;;6.55;1.08;;;;;;;13.50;31.67;98330.72;5091355;28;20030;-50
2022/04/12 01:51:04;;;;;;;10.15;2.55;;;;;;;13.59;31.52;98318.78;5092615;28;20509;-50
2022/04/12 01:53:29;;;;;;;5.97;1.67;;;;;;;13.71;31.32;98321.41;5090474;28;20065;-50
2022/04/12 01:55:55;;;;;;;6.07;1.58;;;;;;;13.77;31.03;98319.72;5092827;28;20502;-50
2022/04/12 01:58:21;;;;;;;2.90;1.10;;;;;;;13.86;30.70;98323.59;5091212;28;20508;-51
2022/04/12 02:00:46;;;;;;;6.93;1.27;;;;;;;13.84;30.78;98324.84;5092375;28;20027;-50
2022/04/12 02:03:13;;;;;;;6.65;1.60;;;;;;;13.85;31.64;98316.72;5091133;28;20032;-50
2022/04/12 02:05:42;;;;;;;8.95;1.83;;;;;;;13.90;31.08;98318.66;5090984;28;20023;-50
2022/04/12 02:08:08;;;;;;;8.52;1.65;;;;;;;13.95;31.03;98306.38;5092399;28;20020;-51
2022/04/12 02:10:34;;;;;;;3.65;1.23;;;;;;;14.04;30.65;98304.19;5092283;28;20024;-49
2022/04/12 02:13:00;;;;;;;3.80;0.88;;;;;;;14.07;30.46;98290.53;5090947;28;20093;-50
2022/04/12 02:15:26;;;;;;;4.63;1.63;;;;;;;14.17;30.09;98284.69;5090883;28;20032;-51
2022/04/12 02:17:51;;;;;;;4.55;0.77;;;;;;;14.25;30.08;98291.44;5090859;28;20017;-50
2022/04/12 02:20:17;;;;;;;7.00;1.08;;;;;;;14.25;29.80;98292.22;5092131;28;20107;-50
2022/04/12 02:22:43;;;;;;;3.55;1.10;;;;;;;14.30;29.69;98284.41;5090787;28;20392;-50
2022/04/12 02:25:09;;;;;;;4.95;1.20;;;;;;;14.31;29.39;98282.56;5092142;28;20039;-50
2022/04/12 02:27:35;;;;;;;4.60;1.08;;;;;;;14.32;28.79;98286.81;5090769;28;20026;-50
2022/04/12 02:30:01;;;;;;;7.97;1.30;;;;;;;14.34;29.55;98280.25;5090716;28;20028;-51
2022/04/12 02:32:26;;;;;;;2.60;1.23;;;;;;;14.49;28.72;98282.41;5090351;28;20036;-50
2022/04/12 02:34:52;;;;;;;6.40;1.67;;;;;;;14.58;29.01;98293.41;5092332;28;20036;-50
2022/04/12 02:37:18;;;;;;;4.32;1.02;;;;;;;14.66;28.52;98277.19;5090606;28;20043;-51
2022/04/12 02:39:44;;;;;;;5.40;1.55;;;;;;;14.79;28.59;98278.75;5090552;28;20406;-50
2022/04/12 02:42:09;;;;;;;13.73;2.30;;;;;;;14.82;28.70;98278.25;5091899;28;20030;-50
2022/04/12 02:44:35;;;;;;;6.28;1.15;;;;;;;14.81;28.67;98271.38;5091884;28;20020;-50
2022/04/12 02:47:01;;;;;;;7.35;2.00;;;;;;;14.89;28.86;98284.19;5091903;28;20024;-49
2022/04/12 02:49:26;;;;;;;3.58;0.80;;;;;;;14.98;28.83;98282.75;5090474;28;20123;-50
2022/04/12 02:51:52;;;;;;;7.15;1.25;;;;;;;14.96;28.26;98286.69;5091808;28;20024;-51
2022/04/12 02:54:18;;;;;;;6.57;1.38;;;;;;;14.93;27.64;98281.84;5091831;28;20187;-50
2022/04/12 02:56:44;;;;;;;3.65;0.93;;;;;;;14.97;27.14;98280.38;5091718;28;20494;-51
2022/04/12 02:59:09;;;;;;;5.53;1.67;;;;;;;15.00;27.90;98279.88;5091698;28;20027;-51
2022/04/12 03:01:35;;;;;;;7.70;1.52;;;;;;;15.06;27.74;98294.78;5090416;28;20024;-51
2022/04/12 03:04:01;;;;;;;4.35;1.15;;;;;;;15.13;27.39;98282.22;5091901;28;20516;-51
2022/04/12 03:06:27;;;;;;;9.63;1.55;;;;;;;15.22;27.27;98273.91;5095762;28;20016;-49
2022/04/12 03:08:53;;;;;;;9.25;1.85;;;;;;;15.20;27.17;98275.97;5095822;28;20466;-50
2022/04/12 03:11:18;;;;;;;2.28;0.90;;;;;;;15.22;26.98;98279.19;5094314;28;20440;-50
2022/04/12 03:13:44;;;;;;;4.30;1.25;;;;;;;15.25;27.09;98268.94;5095710;28;20191;-50
2022/04/12 03:16:09;;;;;;;8.88;2.40;;;;;;;15.25;26.99;98268.94;5095617;28;20027;-50
2022/04/12 03:18:35;;;;;;;9.27;1.73;;;;;;;15.23;27.42;98262.25;5094145;28;20131;-51
2022/04/12 03:21:01;;;;;;;8.85;2.13;;;;;;;15.26;27.45;98262.59;5094222;28;20073;-50
2022/04/12 03:23:27;;;;;;;6.93;1.48;;;;;;;15.31;26.89;98267.97;5095442;28;20027;-51
2022/04/12 03:25:52;;;;;;;4.30;1.70;;;;;;;15.32;26.91;98264.25;5094070;28;20028;-50
2022/04/12 03:28:18;;;;;;;5.80;1.75;;;;;;;15.34;26.58;98264.03;5094060;28;20571;-51
2022/04/12 03:30:44;;;;;;;3.58;1.10;;;;;;;15.31;26.38;98251.28;5095346;28;20028;-50
2022/04/12 03:33:10;;;;;;;6.88;2.72;;;;;;;15.31;26.17;98253.94;5095095;28;20100;-50
2022/04/12 03:35:36;;;;;;;4.88;1.75;;;;;;;15.26;26.51;98249.38;5095215;28;20099;-50
2022/04/12 03:38:01;;;;;;;8.07;1.75;;;;;;;15.25;26.25;98249.59;5093876;28;20115;-50
2022/04/12 03:40:31;;;;;;;6.28;1.20;;;;;;;15.24;26.02;98250.66;5095064;28;20019;-50
2022/04/12 03:43:05;;;;;;;2.88;1.10;;;;;;;15.14;26.16;98256.59;5095191;28;20024;-50
2022/04/12 03:45:32;;;;;;;5.88;1.20;;;;;;;15.02;26.04;98248.72;5095109;28;20040;-50
2022/04/12 03:47:59;;;;;;;3.08;1.10;;;;;;;15.05;26.21;98250.09;5093665;28;20032;-50
2022/04/12 03:50:25;;;;;;;7.25;1.55;;;;;;;15.02;26.59;98251.38;5094956;28;20047;-51
2022/04/12 03:52:52;;;;;;;3.80;1.40;;;;;;;15.12;26.72;98256.03;5093611;28;20035;-50
2022/04/12 03:55:30;;;;;;;9.57;1.63;;;;;;;15.18;26.25;98255.06;5094813;28;20103;-51
2022/04/12 03:57:58;;;;;;;6.03;1.13;;;;;;;15.27;25.95;98248.34;5093577;28;20044;-50
2022/04/12 04:00:24;;;;;;;10.10;1.50;;;;;;;15.28;25.65;98252.56;5094623;28;20028;-50
2022/04/12 04:02:49;;;;;;;7.07;1.30;;;;;;;15.32;25.57;98251.03;5094747;28;20508;-50
2022/04/12 04:05:15;;;;;;;4.60;1.58;;;;;;;15.23;25.23;98254.34;5094666;28;20044;-50
2022/04/12 04:07:41;;;;;;;8.88;1.33;;;;;;;15.18;25.58;98255.06;5094612;28;20028;-51
2022/04/12 04:10:07;;;;;;;5.65;1.40;;;;;;;15.20;25.68;98257.47;5093311;28;20031;-50
2022/04/12 04:12:33;;;;;;;5.45;1.33;;;;;;;15.22;25.52;98247.47;5093257;28;20564;-50
2022/04/12 04:14:59;;;;;;;6.53;1.88;;;;;;;15.20;25.70;98238.97;5093800;28;20028;-50
2022/04/12 04:17:25;;;;;;;2.55;1.17;;;;;;;15.15;25.64;98237.03;5094246;28;20409;-50
2022/04/12 04:19:50;;;;;;;3.75;0.93;;;;;;;15.09;25.84;98246.75;5093067;28;20021;-50
2022/04/12 04:22:16;;;;;;;7.32;1.40;;;;;;;15.11;26.06;98235.91;5093029;28;20120;-50
2022/04/12 04:24:42;;;;;;;4.30;1.23;;;;;;;15.06;24.89;98239.28;5094325;28;20053;-50
2022/04/12 04:27:08;;;;;;;5.90;1.25;;;;;;;14.90;25.63;98243.50;5092921;28;20028;-51
2022/04/12 04:29:35;;;;;;;3.80;1.52;;;;;;;14.89;25.84;98241.94;5094249;28;20016;-50
2022/04/12 04:32:01;;;;;;;12.00;1.50;;;;;;;14.90;25.19;98224.22;5093983;28;20023;-50
2022/04/12 04:34:27;;;;;;;4.72;1.05;;;;;;;14.88;25.44;98228.94;5094170;28;20509;-50
2022/04/12 04:36:53;;;;;;;5.35;1.33;;;;;;;14.86;25.47;98239.75;5092737;28;20024;-50
2022/04/12 04:39:18;;;;;;;4.10;1.40;;;;;;;14.84;25.69;98239.19;5093948;28;20401;-50
2022/04/12 04:41:44;;;;;;;11.38;2.20;;;;;;;14.84;26.01;98243.69;5092669;28;20031;-50
2022/04/12 04:44:10;;;;;;;2.67;1.48;;;;;;;14.87;25.74;98232.63;5093937;28;20425;-50
2022/04/12 04:46:36;;;;;;;4.68;1.33;;;;;;;14.80;25.40;98242.56;5092586;28;20435;-50
2022/04/12 04:49:01;;;;;;;5.70;2.10;;;;;;;14.74;25.89;98239.81;5092582;28;20058;-50
2022/04/12 04:51:27;;;;;;;4.72;1.58;;;;;;;14.80;25.80;98245.19;5093825;28;20020;-50
2022/04/12 04:53:58;;;;;;;5.38;1.17;;;;;;;14.83;25.55;98255.28;5092426;28;20486;-50
2022/04/12 04:56:26;;;;;;;6.75;1.45;;;;;;;14.73;26.28;98248.00;5094037;28;20436;-51
2022/04/12 04:58:52;;;;;;;7.45;2.28;;;;;;;14.72;26.54;98263.03;5092259;28;20032;-50
2022/04/12 05:01:20;;;;;;;6.53;1.40;;;;;;;14.74;26.79;98257.50;5092211;28;20016;-50
2022/04/12 05:03:47;;;;;;;7.43;1.27;;;;;;;14.74;26.30;98252.22;5093585;28;20024;-50
2022/04/12 05:06:14;;;;;;;6.85;1.25;;;;;;;14.69;26.59;98263.50;5093416;28;20393;-50
2022/04/12 05:08:40;;;;;;;4.32;1.17;;;;;;;14.66;25.52;98258.69;5093486;28;20024;-50
2022/04/12 05:11:06;;;;;;;5.95;1.33;;;;;;;14.55;26.01;98254.25;5093408;28;20020;-50
2022/04/12 05:13:32;;;;;;;14.68;1.75;;;;;;;14.56;26.83;98251.38;5093388;28;20016;-50
2022/04/12 05:15:58;;;;;;;5.72;1.55;;;;;;;14.51;26.73;98248.63;5091997;28;20055;-50
2022/04/12 05:18:23;;;;;;;13.30;2.90;;;;;;;14.55;26.65;98252.41;5091992;28;20024;-51
2022/04/12 05:20:49;;;;;;;5.55;1.40;;;;;;;14.69;26.93;98260.03;5091811;28;20056;-50
2022/04/12 05:23:16;;;;;;;6.80;1.70;;;;;;;14.80;26.89;98261.03;5093192;28;20107;-50
2022/04/12 05:25:42;;;;;;;9.40;1.80;;;;;;;14.90;26.99;98266.50;5091850;28;20111;-51
2022/04/12 05:28:08;;;;;;;5.85;1.48;;;;;;;14.93;26.96;98260.72;5093034;28;20028;-49
2022/04/12 05:30:34;;;;;;;6.00;1.40;;;;;;;14.94;26.93;98252.56;5093007;28;20020;-50
2022/04/12 05:33:00;;;;;;;4.80;1.52;;;;;;;14.96;26.58;98245.19;5092827;28;20036;-50
2022/04/12 05:35:26;;;;;;;8.50;1.70;;;;;;;15.15;26.44;98255.53;5092883;28;20546;-50
2022/04/12 05:37:53;;;;;;;16.08;1.85;;;;;;;15.31;26.50;98253.94;5092923;28;20095;-50
2022/04/12 05:40:20;;;;;;;8.38;1.95;;;;;;;15.33;26.41;98265.06;5091436;28;20467;-51
2022/04/12 05:42:47;;;;;;;6.15;1.40;;;;;;;15.38;25.92;98271.22;5091543;28;20115;-50
2022/04/12 05:45:13;;;;;;;6.45;1.90;;;;;;;15.27;26.55;98274.78;5092800;28;20032;-50
2022/04/12 05:47:53;;;;;;;7.50;1.67;;;;;;;15.17;26.88;98274.59;5092826;28;20436;-50
2022/04/12 05:50:21;;;;;;;4.40;2.10;;;;;;;15.19;26.55;98277.78;5092768;28;20413;-50
2022/04/12 05:52:47;;;;;;;8.95;2.20;;;;;;;15.18;27.01;98282.28;5091347;28;20024;-50
2022/04/12 05:55:17;;;;;;;8.90;2.28;;;;;;;15.33;26.92;98281.75;5091291;28;20100;-50
2022/04/12 05:58:00;;;;;;;13.32;4.40;;;;;;;15.44;26.66;98276.63;5091319;28;20035;-49
2022/04/12 06:00:29;;;;;;;9.13;4.00;;;;;;;15.51;26.65;98280.69;5092514;28;20028;-50
2022/04/12 06:02:55;;;;;;;4.75;2.08;;;;;;;15.64;26.21;98279.53;5091207;28;20137;-50
2022/04/12 06:05:23;;;;;;;9.73;3.65;;;;;;;15.92;25.59;98280.50;5092368;28;20073;-50
2022/04/12 06:07:50;;;;;;;10.48;5.35;;;;;;;16.41;25.31;98285.84;5092444;28;20392;-50
2022/04/12 06:10:17;;;;;;;7.97;3.17;;;;;;;16.81;24.31;98283.88;5091007;28;20093;-49
2022/04/12 06:12:43;;;;;;;3.70;2.53;;;;;;;17.00;23.64;98289.63;5092363;28;20095;-50
2022/04/12 06:15:10;;;;;;;6.40;2.47;;;;;;;17.24;23.67;98290.09;5090910;28;20513;-51
2022/04/12 06:17:38;;;;;;;4.43;2.13;;;;;;;17.57;23.35;98294.31;5092346;28;20020;-50
2022/04/12 06:20:08;;;;;;;5.55;2.33;;;;;;;17.67;22.66;98305.00;5090789;28;20503;-50
2022/04/12 06:22:35;;;;;;;5.25;2.30;;;;;;;17.42;23.11;98307.47;5092230;28;20028;-50
2022/04/12 06:25:02;;;;;;;8.35;2.70;;;;;;;17.09;23.13;98320.75;5092104;28;20486;-49
2022/04/12 06:27:36;;;;;;;14.23;2.83;;;;;;;16.96;24.10;98321.97;5092090;28;20016;-50
2022/04/12 06:30:15;;;;;;;5.50;1.23;;;;;;;17.04;23.54;98314.59;5092121;28;20124;-50
2022/04/12 06:32:42;;;;;;;6.32;1.60;;;;;;;16.85;23.45;98317.59;5091826;28;20547;-49
2022/04/12 06:35:09;;;;;;;8.82;1.70;;;;;;;16.62;23.91;98320.50;5091948;28;20460;-50
2022/04/12 06:37:36;;;;;;;7.03;1.60;;;;;;;16.49;24.11;98317.19;5092002;28;20024;-50
2022/04/12 06:40:03;;;;;;;5.78;2.10;;;;;;;16.65;24.59;98335.91;5091368;28;20485;-51
2022/04/12 06:42:28;;;;;;;3.17;1.42;;;;;;;16.89;24.31;98315.25;5092005;28;20569;-50
2022/04/12 06:44:54;;;;;;;9.13;2.83;;;;;;;17.00;25.83;98321.44;5091915;28;20046;-50
2022/04/12 06:47:20;;;;;;;9.25;1.45;;;;;;;17.09;24.45;98320.75;5091835;28;20073;-49
2022/04/12 06:49:48;;;;;;;6.32;2.05;;;;;;;17.20;24.61;98321.63;5091886;28;20032;-50
2022/04/12 06:52:15;;;;;;;6.10;2.22;;;;;;;17.34;25.57;98327.31;5091731;28;20030;-50
2022/04/12 06:54:41;;;;;;;5.95;1.70;;;;;;;17.68;24.97;98324.38;5090482;28;20111;-50
2022/04/12 06:57:07;;;;;;;5.53;2.05;;;;;;;17.95;23.76;98332.28;5091742;28;20024;-50
2022/04/12 06:59:34;;;;;;;7.72;4.53;;;;;;;18.00;23.73;98324.31;5091697;28;20051;-50
2022/04/12 07:02:01;;;;;;;13.02;4.97;;;;;;;18.17;23.45;98327.63;5091721;28;20553;-50
2022/04/12 07:04:30;;;;;;;21.45;5.65;;;;;;;18.28;22.65;98331.09;5091706;28;20035;-50
2022/04/12 07:06:56;;;;;;;15.60;6.60;;;;;;;18.32;22.96;98334.84;5091642;28;20025;-51
2022/04/12 07:09:23;;;;;;;5.88;2.50;;;;;;;18.34;22.27;98331.94;5091736;28;20070;-50
2022/04/12 07:11:52;;;;;;;6.95;1.80;;;;;;;18.39;21.90;98325.84;5091684;28;20035;-50
2022/04/12 07:14:17;;;;;;;5.05;2.25;;;;;;;18.33;22.65;98341.78;5091956;28;20028;-50
2022/04/12 07:16:43;;;;;;;9.55;1.92;;;;;;;18.19;23.53;98335.34;5091590;28;20024;-50
2022/04/12 07:19:09;;;;;;;4.10;1.40;;;;;;;18.21;23.10;98351.81;5091462;28;20020;-50
2022/04/12 07:21:35;;;;;;;7.63;1.63;;;;;;;18.32;22.29;98342.03;5091550;28;20028;-50
2022/04/12 07:24:03;;;;;;;10.23;1.60;;;;;;;18.52;21.92;98336.78;5091521;28;20080;-50
2022/04/12 07:26:30;;;;;;;2.92;1.30;;;;;;;18.85;22.46;98324.13;5091530;28;20059;-50
2022/04/12 07:28:55;;;;;;;7.38;1.40;;;;;;;19.04;20.37;98310.34;5091488;28;20023;-49
2022/04/12 07:31:21;;;;;;;7.75;1.98;;;;;;;19.03;20.87;98320.16;5091436;28;20020;-51
2022/04/12 07:33:47;;;;;;;7.85;1.90;;;;;;;19.25;21.10;98319.13;5089973;28;20048;-50
2022/04/12 07:36:14;;;;;;;7.68;2.00;;;;;;;19.39;20.76;98333.50;5090059;28;20032;-51
2022/04/12 07:38:41;;;;;;;6.78;1.40;;;;;;;19.63;20.08;98325.75;5091307;28;20025;-50
2022/04/12 07:41:07;;;;;;;6.03;1.38;;;;;;;19.69;20.42;98326.56;5091314;28;20592;-50
2022/04/12 07:43:33;;;;;;;4.15;1.10;;;;;;;19.63;19.62;98320.44;5091361;28;20107;-50
2022/04/12 07:45:59;;;;;;;7.80;2.03;;;;;;;19.58;20.46;98325.78;5091340;28;20397;-50
2022/04/12 07:48:24;;;;;;;8.73;1.70;;;;;;;19.71;19.97;98329.78;5090099;28;20111;-51
2022/04/12 07:50:50;;;;;;;12.32;1.83;;;;;;;20.00;20.14;98322.00;5091011;28;20035;-50
2022/04/12 07:53:16;;;;;;;3.65;1.15;;;;;;;20.52;19.18;98328.75;5093665;28;20562;-50
2022/04/12 07:55:41;;;;;;;6.05;1.80;;;;;;;21.03;19.01;98324.22;5093529;28;20020;-50
2022/04/12 07:58:07;;;;;;;5.47;1.25;;;;;;;21.67;18.40;98328.53;5094896;28;20048;-51
2022/04/12 08:00:33;;;;;;;8.35;1.80;;;;;;;22.37;17.81;98332.59;5094760;28;20024;-51
2022/04/12 08:02:58;;;;;;;3.92;1.17;;;;;;;23.00;16.77;98322.66;5093403;28;20512;-50
2022/04/12 08:05:24;;;;;;;8.70;1.90;;;;;;;23.52;17.03;98331.50;5094685;28;20016;-51
2022/04/12 08:07:50;;;;;;;7.13;2.42;;;;;;;24.09;16.75;98316.03;5093479;28;20027;-50
2022/04/12 08:10:19;;;;;;;7.93;2.42;;;;;;;24.36;16.35;98319.78;5094548;28;20067;-50
2022/04/12 08:12:47;;;;;;;3.90;1.50;;;;;;;24.52;16.13;98318.38;5093233;28;20035;-49
2022/04/12 08:15:15;;;;;;;2.85;1.20;;;;;;;24.47;16.08;98315.78;5094545;28;20221;-50
2022/04/12 08:17:41;;;;;;;5.90;1.48;;;;;;;24.25;16.19;98329.13;5094511;28;20020;-50
2022/04/12 08:20:09;;;;;;;11.85;2.58;;;;;;;23.59;16.57;98313.16;5094361;28;20023;-50
2022/04/12 08:22:36;;;;;;;13.27;2.05;;;;;;;23.16;17.69;98324.06;5094434;28;20021;-51
2022/04/12 08:25:03;;;;;;;7.80;1.60;;;;;;;22.99;17.88;98329.09;5094321;28;20023;-50
2022/04/12 08:27:29;;;;;;;5.32;1.23;;;;;;;22.82;18.38;98322.38;5093098;28;20059;-50
2022/04/12 08:29:55;;;;;;;4.35;1.13;;;;;;;22.60;17.87;98327.53;5092941;28;20059;-50
2022/04/12 08:32:21;;;;;;;5.05;1.10;;;;;;;22.25;17.31;98333.00;5093958;28;20032;-50
2022/04/12 08:34:47;;;;;;;4.78;1.35;;;;;;;21.77;18.23;98334.84;5094213;28;20039;-51
2022/04/12 08:37:13;;;;;;;5.72;1.25;;;;;;;21.51;18.40;98329.72;5094071;28;20028;-50
2022/04/12 08:39:39;;;;;;;3.25;0.90;;;;;;;21.32;18.38;98341.06;5094010;28;20035;-51
2022/04/12 08:42:05;;;;;;;6.95;2.10;;;;;;;21.16;18.43;98334.25;5092756;28;20017;-50
2022/04/12 08:44:33;;;;;;;6.75;1.20;;;;;;;21.16;18.81;98336.91;5092679;28;20067;-50
2022/04/12 08:47:03;;;;;;;3.45;0.90;;;;;;;21.16;18.48;98339.59;5093891;28;20028;-50
2022/04/12 08:49:30;;;;;;;6.40;1.48;;;;;;;20.94;18.77;98335.44;5093883;28;20040;-50
2022/04/12 08:51:56;;;;;;;5.93;1.52;;;;;;;20.79;18.74;98346.22;5093822;28;20040;-50
2022/04/12 08:54:23;;;;;;;8.23;2.10;;;;;;;20.61;18.51;98337.00;5093741;28;20097;-51
2022/04/12 08:56:52;;;;;;;7.43;1.15;;;;;;;20.48;19.02;98329.53;5093658;28;20020;-51
2022/04/12 08:59:18;;;;;;;5.35;1.30;;;;;;;20.37;19.12;98330.69;5093612;28;20020;-50
2022/04/12 09:01:46;;;;;;;3.22;1.10;;;;;;;20.27;18.96;98334.19;5093269;28;20103;-51
2022/04/12 09:04:12;;;;;;;34.25;4.18;;;;;;;20.15;19.37;98321.16;5093635;28;20099;-50
2022/04/12 09:06:52;;;;;;;178.40;16.00;;;;;;;20.12;19.40;98337.66;5093492;28;20035;-50
2022/04/12 09:09:21;;;;;;;19.45;2.35;;;;;;;20.02;19.50;98343.03;5092122;28;20115;-50
2022/04/12 09:12:08;;;;;;;224.50;19.65;;;;;;;20.18;20.32;98327.81;5092062;28;20024;-51
2022/04/12 09:14:46;;;;;;;192.20;17.35;;;;;;;20.34;19.77;98329.34;5092102;28;20078;-51
2022/04/12 09:17:20;;;;;;;166.10;13.75;;;;;;;20.35;20.19;98328.28;5093301;28;20456;-49
2022/04/12 09:19:51;;;;;;;28.42;3.22;;;;;;;20.58;19.87;98326.81;5093266;28;20024;-51
2022/04/12 09:22:23;;;;;;;29.63;3.75;;;;;;;20.77;20.02;98329.72;5093259;28;20055;-51
2022/04/12 09:24:54;;;;;;;99.93;8.80;;;;;;;20.99;19.90;98331.97;5091926;28;20115;-50
2022/04/12 09:27:21;;;;;;;196.80;18.48;;;;;;;21.20;19.67;98326.50;5093178;28;20612;-50
2022/04/12 09:29:54;;;;;;;129.02;12.30;;;;;;;21.40;19.26;98331.66;5093104;28;20518;-51
2022/04/12 09:32:22;;;;;;;66.05;5.70;;;;;;;21.42;19.33;98321.50;5092731;28;20517;-49
2022/04/12 09:34:47;;;;;;;55.20;6.22;;;;;;;21.37;19.39;98323.41;5093091;28;20456;-50
2022/04/12 09:37:27;;;;;;;25.13;3.75;;;;;;;21.41;19.42;98324.44;5092923;28;20016;-51
2022/04/12 09:39:54;;;;;;;50.03;6.32;;;;;;;21.46;19.52;98330.56;5092868;28;20027;-50
2022/04/12 09:42:58;;;;;;;28.95;4.53;;;;;;;21.56;19.37;98321.69;5092848;28;20099;-50
2022/04/12 09:45:24;;;;;;;16.80;2.33;;;;;;;21.49;19.30;98323.88;5030386;28;20033;-51
2022/04/12 09:47:54;;;;;;;15.20;2.30;;;;;;;21.34;19.05;98327.44;5030337;28;20052;-51
2022/04/12 09:50:22;;;;;;;8.38;1.55;;;;;;;21.24;19.46;98320.31;5030458;28;20033;-50
2022/04/12 09:52:55;;;;;;;14.35;2.20;;;;;;;21.09;19.78;98328.44;5013752;28;20454;-50
2022/04/12 09:55:43;;;;;;;8.63;2.35;;;;;;;21.09;20.30;98323.09;5030181;28;20029;-49
2022/04/12 09:58:11;;;;;;;13.27;2.33;;;;;;;21.08;20.09;98324.97;5030276;28;20040;-51
2022/04/12 10:00:41;;;;;;;11.18;2.92;;;;;;;20.98;20.29;98318.91;5030076;28;20033;-50
2022/04/12 10:03:12;;;;;;;10.95;1.48;;;;;;;20.93;20.02;98325.88;5030222;28;20741;-50
2022/04/12 10:05:38;;;;;;;6.25;1.33;;;;;;;20.93;19.90;98317.06;5013515;28;20128;-50
2022/04/12 10:08:06;;;;;;;8.02;1.45;;;;;;;20.81;19.98;98316.63;5030112;28;20673;-50
2022/04/12 10:10:32;;;;;;;4.32;1.40;;;;;;;20.84;20.02;98324.06;5030056;28;20518;-50
2022/04/12 10:12:59;;;;;;;6.80;1.27;;;;;;;20.83;20.07;98317.94;5029490;28;20033;-50
2022/04/12 10:15:27;;;;;;;9.18;1.90;;;;;;;20.79;20.00;98322.22;5029823;28;20385;-50
2022/04/12 10:17:55;;;;;;;7.45;2.25;;;;;;;20.79;20.31;98322.22;5029922;28;20021;-51
2022/04/12 10:20:22;;;;;;;6.35;1.20;;;;;;;20.88;20.26;98314.44;5087303;28;20036;-49
2022/04/12 10:22:48;;;;;;;8.32;1.30;;;;;;;20.87;20.35;98305.63;5092182;28;20027;-50
2022/04/12 10:25:23;;;;;;;5.40;1.42;;;;;;;20.79;20.66;98306.22;5092172;28;20069;-50
2022/04/12 10:27:56;;;;;;;4.80;1.42;;;;;;;20.92;20.52;98310.13;5090904;28;20069;-51
2022/04/12 10:30:27;;;;;;;9.68;1.42;;;;;;;20.89;20.82;98306.16;5092092;28;20506;-50
2022/04/12 10:33:02;;;;;;;8.38;1.80;;;;;;;20.94;20.87;98305.31;5091796;28;20130;-50
2022/04/12 10:35:48;;;;;;;;;;;;;;;21.05;20.50;98298.06;5092481;28;20081;-50
2022/04/12 10:38:16;;;;;;;8.67;1.20;;;;;;;21.06;20.53;98299.63;5084420;28;19918;-51
2022/04/12 10:40:47;;;;;;;4.45;1.02;;;;;;;21.18;20.48;98304.63;5091917;28;20024;-50
2022/04/12 10:43:14;;;;;;;7.30;1.15;;;;;;;21.27;20.73;98295.75;5090663;28;20445;-50
2022/04/12 10:45:51;;;;;;;4.55;1.40;;;;;;;21.33;20.64;98297.28;5091905;28;20055;-51
2022/04/12 10:48:24;;;;;;;9.55;2.38;;;;;;;21.39;20.48;98290.03;5090573;28;20122;-50
2022/04/12 10:50:52;;;;;;;9.25;1.55;;;;;;;21.37;20.48;98291.38;5091888;28;20028;-51
2022/04/12 10:53:36;;;;;;;12.77;2.40;;;;;;;21.50;20.47;98285.41;5091889;28;20032;-50
2022/04/12 10:56:05;;;;;;;5.22;1.20;;;;;;;21.82;20.03;98284.03;5091792;28;20097;-50
2022/04/12 10:58:33;;;;;;;3.90;1.60;;;;;;;22.10;20.03;98296.53;5091721;28;20462;-51
2022/04/12 11:00:59;;;;;;;10.18;1.67;;;;;;;22.24;19.62;98285.97;5090404;28;20514;-50
2022/04/12 11:03:55;;;;;;;6.22;1.60;;;;;;;22.23;19.78;98287.00;5091807;28;20024;-51
2022/04/12 11:06:32;;;;;;;6.05;1.60;;;;;;;22.59;18.88;98283.13;5091700;28;20021;-50
2022/04/12 11:09:00;;;;;;;4.22;0.80;;;;;;;23.02;18.18;98283.84;5091653;28;20032;-51
2022/04/12 11:11:33;;;;;;;5.82;1.45;;;;;;;23.49;18.06;98271.28;5090325;28;20020;-51
2022/04/12 11:14:26;;;;;;;13.40;1.13;;;;;;;23.84;17.71;98273.63;5091684;28;20493;-50
2022/04/12 11:16:57;;;;;;;5.85;2.75;;;;;;;23.67;17.99;98274.97;5090361;28;20020;-51
2022/04/12 11:19:25;;;;;;;4.45;1.20;;;;;;;23.61;17.62;98273.47;5091595;28;20046;-49
2022/04/12 11:21:57;;;;;;;6.07;1.25;;;;;;;23.68;17.23;98273.91;5090254;28;20502;-51
2022/04/12 11:24:24;;;;;;;7.80;1.25;;;;;;;23.71;17.39;98275.19;5090677;28;20036;-50
2022/04/12 11:27:02;;;;;;;7.07;1.67;;;;;;;23.64;17.31;98282.81;5095492;28;20093;-50
2022/04/12 11:29:28;;;;;;;7.82;1.13;;;;;;;23.36;17.54;98276.59;5095447;28;20039;-51
2022/04/12 11:31:56;;;;;;;2.50;1.50;;;;;;;23.32;17.88;98271.84;5095391;28;20021;-50
2022/04/12 11:34:25;;;;;;;8.20;2.08;;;;;;;23.46;18.77;98271.06;5095122;28;20044;-51
2022/04/12 11:36:55;;;;;;;4.13;1.10;;;;;;;23.78;18.00;98277.50;5095285;28;20020;-50